Terminal Aerodrome Forecast
Issued by NWS Omaha/Valley, NE

Home | Current Version | Previous Version | Graphics & Text | Print | Product List | Glossary On
Versions: 1 2 3 4 5 6 7 8 9 10 11 12 13 14 15 16 17 18 19 20 21 22 23 24 25 26 27 28 29 30 31 32 33 34 35 36
000
FTUS43 KOAX 190522
TAFOFK
TAF
KOFK 190522Z 1906/2006 18006KT P6SM SCT020 OVC050
      TEMPO 1906/1909 5SM -SHRA BKN020
     FM190900 31008KT P6SM OVC025
      TEMPO 1910/1914 4SM SHRA BKN015
     FM191400 33016G26KT P6SM OVC025
     FM191700 34020G30KT P6SM SCT030 BKN080
     FM192300 33015KT P6SM SCT070 SCT250=

USA.gov is the U.S. government's official web portal to all federal, state and local government web resources and services.